sensor_id;sensor_type;location;lat;lon;timestamp;temperature;humidity
32506;DHT22;18955;51.224;8.482;2022-08-03T00:00:55;19.10;70.60
32506;DHT22;18955;51.224;8.482;2022-08-03T00:03:21;19.10;70.50
32506;DHT22;18955;51.224;8.482;2022-08-03T00:05:47;19.00;70.60
32506;DHT22;18955;51.224;8.482;2022-08-03T00:08:14;19.00;70.70
32506;DHT22;18955;51.224;8.482;2022-08-03T00:10:40;19.00;70.70
32506;DHT22;18955;51.224;8.482;2022-08-03T00:13:06;18.90;70.60
32506;DHT22;18955;51.224;8.482;2022-08-03T00:15:32;18.90;70.60
32506;DHT22;18955;51.224;8.482;2022-08-03T00:17:58;18.90;70.60
32506;DHT22;18955;51.224;8.482;2022-08-03T00:20:25;18.90;70.60
32506;DHT22;18955;51.224;8.482;2022-08-03T00:22:51;18.90;70.90
32506;DHT22;18955;51.224;8.482;2022-08-03T00:25:17;18.80;70.70
32506;DHT22;18955;51.224;8.482;2022-08-03T00:27:44;18.80;70.70
32506;DHT22;18955;51.224;8.482;2022-08-03T00:30:10;18.80;70.60
32506;DHT22;18955;51.224;8.482;2022-08-03T00:32:36;18.80;70.70
32506;DHT22;18955;51.224;8.482;2022-08-03T00:35:03;18.70;70.90
32506;DHT22;18955;51.224;8.482;2022-08-03T00:37:30;18.70;70.70
32506;DHT22;18955;51.224;8.482;2022-08-03T00:39:56;18.60;70.70
32506;DHT22;18955;51.224;8.482;2022-08-03T00:42:22;18.60;71.30
32506;DHT22;18955;51.224;8.482;2022-08-03T00:44:51;18.60;70.70
32506;DHT22;18955;51.224;8.482;2022-08-03T00:47:17;18.60;70.80
32506;DHT22;18955;51.224;8.482;2022-08-03T00:49:43;18.60;70.80
32506;DHT22;18955;51.224;8.482;2022-08-03T00:52:10;18.60;70.80
32506;DHT22;18955;51.224;8.482;2022-08-03T00:54:39;18.50;70.80
32506;DHT22;18955;51.224;8.482;2022-08-03T00:57:05;18.50;71.10
32506;DHT22;18955;51.224;8.482;2022-08-03T00:59:31;18.50;70.90
32506;DHT22;18955;51.224;8.482;2022-08-03T01:01:58;18.40;70.90
32506;DHT22;18955;51.224;8.482;2022-08-03T01:04:24;18.40;70.90
32506;DHT22;18955;51.224;8.482;2022-08-03T01:15:45;18.30;70.90
32506;DHT22;18955;51.224;8.482;2022-08-03T01:21:01;18.30;71.10
32506;DHT22;18955;51.224;8.482;2022-08-03T01:32:17;18.20;71.00
32506;DHT22;18955;51.224;8.482;2022-08-03T01:34:50;18.20;71.10
32506;DHT22;18955;51.224;8.482;2022-08-03T01:37:23;18.10;71.20
32506;DHT22;18955;51.224;8.482;2022-08-03T01:39:55;18.10;71.30
32506;DHT22;18955;51.224;8.482;2022-08-03T01:42:24;18.10;71.20
32506;DHT22;18955;51.224;8.482;2022-08-03T01:44:51;18.00;71.30
32506;DHT22;18955;51.224;8.482;2022-08-03T01:47:20;18.00;71.10
32506;DHT22;18955;51.224;8.482;2022-08-03T01:49:48;18.00;71.30
32506;DHT22;18955;51.224;8.482;2022-08-03T01:52:19;18.00;71.30
32506;DHT22;18955;51.224;8.482;2022-08-03T01:54:50;18.00;71.30
32506;DHT22;18955;51.224;8.482;2022-08-03T01:57:18;17.90;71.50
32506;DHT22;18955;51.224;8.482;2022-08-03T01:59:46;17.90;71.40
32506;DHT22;18955;51.224;8.482;2022-08-03T02:02:15;17.90;71.40
32506;DHT22;18955;51.224;8.482;2022-08-03T02:04:43;17.90;71.30
32506;DHT22;18955;51.224;8.482;2022-08-03T02:07:11;17.80;71.50
32506;DHT22;18955;51.224;8.482;2022-08-03T02:09:39;17.80;71.60
32506;DHT22;18955;51.224;8.482;2022-08-03T02:12:08;17.80;71.70
32506;DHT22;18955;51.224;8.482;2022-08-03T02:14:36;17.80;71.60
32506;DHT22;18955;51.224;8.482;2022-08-03T02:17:03;17.80;71.50
32506;DHT22;18955;51.224;8.482;2022-08-03T02:19:31;17.70;71.60
32506;DHT22;18955;51.224;8.482;2022-08-03T02:21:58;17.70;71.60
32506;DHT22;18955;51.224;8.482;2022-08-03T02:24:25;17.70;71.60
32506;DHT22;18955;51.224;8.482;2022-08-03T02:26:54;17.70;71.70
32506;DHT22;18955;51.224;8.482;2022-08-03T02:29:24;17.70;71.60
32506;DHT22;18955;51.224;8.482;2022-08-03T02:31:51;17.60;71.70
32506;DHT22;18955;51.224;8.482;2022-08-03T02:34:20;17.60;71.60
32506;DHT22;18955;51.224;8.482;2022-08-03T02:36:51;17.60;71.60
32506;DHT22;18955;51.224;8.482;2022-08-03T02:39:21;17.60;71.70
32506;DHT22;18955;51.224;8.482;2022-08-03T02:41:55;17.60;71.80
32506;DHT22;18955;51.224;8.482;2022-08-03T02:44:29;17.50;71.80
32506;DHT22;18955;51.224;8.482;2022-08-03T02:47:01;17.50;71.90
32506;DHT22;18955;51.224;8.482;2022-08-03T02:49:28;17.50;71.80
32506;DHT22;18955;51.224;8.482;2022-08-03T02:51:56;17.50;71.60
32506;DHT22;18955;51.224;8.482;2022-08-03T02:54:25;17.40;71.80
32506;DHT22;18955;51.224;8.482;2022-08-03T02:56:53;17.40;71.90
32506;DHT22;18955;51.224;8.482;2022-08-03T02:59:22;17.40;72.00
32506;DHT22;18955;51.224;8.482;2022-08-03T03:01:48;17.40;72.00
32506;DHT22;18955;51.224;8.482;2022-08-03T03:04:15;17.40;72.10
32506;DHT22;18955;51.224;8.482;2022-08-03T03:06:42;17.40;72.00
32506;DHT22;18955;51.224;8.482;2022-08-03T03:09:09;17.30;72.00
32506;DHT22;18955;51.224;8.482;2022-08-03T03:11:38;17.30;72.20
32506;DHT22;18955;51.224;8.482;2022-08-03T03:14:06;17.30;72.20
32506;DHT22;18955;51.224;8.482;2022-08-03T03:16:35;17.30;72.30
32506;DHT22;18955;51.224;8.482;2022-08-03T03:19:01;17.30;72.10
32506;DHT22;18955;51.224;8.482;2022-08-03T03:21:29;17.20;72.10
32506;DHT22;18955;51.224;8.482;2022-08-03T03:23:56;17.20;72.10
32506;DHT22;18955;51.224;8.482;2022-08-03T03:26:22;17.20;72.10
32506;DHT22;18955;51.224;8.482;2022-08-03T03:28:49;17.20;72.20
32506;DHT22;18955;51.224;8.482;2022-08-03T03:31:15;17.20;72.20
32506;DHT22;18955;51.224;8.482;2022-08-03T03:33:42;17.10;72.10
32506;DHT22;18955;51.224;8.482;2022-08-03T03:36:08;17.20;72.10
32506;DHT22;18955;51.224;8.482;2022-08-03T03:38:35;17.10;72.20
32506;DHT22;18955;51.224;8.482;2022-08-03T03:41:02;17.10;72.30
32506;DHT22;18955;51.224;8.482;2022-08-03T03:43:29;17.10;72.40
32506;DHT22;18955;51.224;8.482;2022-08-03T03:45:57;17.10;72.50
32506;DHT22;18955;51.224;8.482;2022-08-03T03:48:24;17.00;72.40
32506;DHT22;18955;51.224;8.482;2022-08-03T03:50:50;17.00;72.40
32506;DHT22;18955;51.224;8.482;2022-08-03T03:53:17;17.00;72.40
32506;DHT22;18955;51.224;8.482;2022-08-03T03:55:43;17.00;72.50
32506;DHT22;18955;51.224;8.482;2022-08-03T03:58:09;17.00;72.50
32506;DHT22;18955;51.224;8.482;2022-08-03T04:00:36;17.00;72.60
32506;DHT22;18955;51.224;8.482;2022-08-03T04:03:02;16.90;72.50
32506;DHT22;18955;51.224;8.482;2022-08-03T04:05:28;16.90;72.60
32506;DHT22;18955;51.224;8.482;2022-08-03T04:08:15;16.90;72.50
32506;DHT22;18955;51.224;8.482;2022-08-03T04:11:21;16.90;72.50
32506;DHT22;18955;51.224;8.482;2022-08-03T04:16:26;16.90;72.70
32506;DHT22;18955;51.224;8.482;2022-08-03T04:19:16;16.80;72.70
32506;DHT22;18955;51.224;8.482;2022-08-03T04:21:47;16.90;72.70
32506;DHT22;18955;51.224;8.482;2022-08-03T04:24:16;16.90;72.70
32506;DHT22;18955;51.224;8.482;2022-08-03T04:26:44;16.80;72.90
32506;DHT22;18955;51.224;8.482;2022-08-03T04:29:11;16.80;72.70
32506;DHT22;18955;51.224;8.482;2022-08-03T04:31:39;16.80;72.80
32506;DHT22;18955;51.224;8.482;2022-08-03T04:34:07;16.80;73.10
32506;DHT22;18955;51.224;8.482;2022-08-03T04:36:46;16.70;72.90
32506;DHT22;18955;51.224;8.482;2022-08-03T04:39:19;16.80;73.00
32506;DHT22;18955;51.224;8.482;2022-08-03T04:41:48;16.70;72.80
32506;DHT22;18955;51.224;8.482;2022-08-03T04:44:16;16.70;72.90
32506;DHT22;18955;51.224;8.482;2022-08-03T04:46:44;16.70;73.00
32506;DHT22;18955;51.224;8.482;2022-08-03T04:49:11;16.70;73.00
32506;DHT22;18955;51.224;8.482;2022-08-03T04:51:38;16.70;73.00
32506;DHT22;18955;51.224;8.482;2022-08-03T04:54:05;16.60;73.10
32506;DHT22;18955;51.224;8.482;2022-08-03T04:56:32;16.70;73.20
32506;DHT22;18955;51.224;8.482;2022-08-03T04:58:59;16.60;73.10
32506;DHT22;18955;51.224;8.482;2022-08-03T05:01:25;16.60;73.30
32506;DHT22;18955;51.224;8.482;2022-08-03T05:03:51;16.60;73.20
32506;DHT22;18955;51.224;8.482;2022-08-03T05:06:17;16.60;73.20
32506;DHT22;18955;51.224;8.482;2022-08-03T05:08:44;16.60;73.70
32506;DHT22;18955;51.224;8.482;2022-08-03T05:11:10;16.60;73.40
32506;DHT22;18955;51.224;8.482;2022-08-03T05:13:36;16.60;73.30
32506;DHT22;18955;51.224;8.482;2022-08-03T05:16:02;16.60;73.40
32506;DHT22;18955;51.224;8.482;2022-08-03T05:18:29;16.60;73.50
32506;DHT22;18955;51.224;8.482;2022-08-03T05:20:55;16.60;73.50
32506;DHT22;18955;51.224;8.482;2022-08-03T05:23:21;16.50;73.70
32506;DHT22;18955;51.224;8.482;2022-08-03T05:25:47;16.50;73.90
32506;DHT22;18955;51.224;8.482;2022-08-03T05:28:13;16.50;73.60
32506;DHT22;18955;51.224;8.482;2022-08-03T05:30:40;16.50;73.90
32506;DHT22;18955;51.224;8.482;2022-08-03T05:33:06;16.50;74.00
32506;DHT22;18955;51.224;8.482;2022-08-03T05:35:32;16.40;74.10
32506;DHT22;18955;51.224;8.482;2022-08-03T05:38:02;16.50;74.20
32506;DHT22;18955;51.224;8.482;2022-08-03T05:40:28;16.40;74.10
32506;DHT22;18955;51.224;8.482;2022-08-03T05:42:55;16.40;73.90
32506;DHT22;18955;51.224;8.482;2022-08-03T05:45:21;16.40;73.90
32506;DHT22;18955;51.224;8.482;2022-08-03T05:47:48;16.50;74.10
32506;DHT22;18955;51.224;8.482;2022-08-03T05:50:16;16.40;74.40
32506;DHT22;18955;51.224;8.482;2022-08-03T05:52:43;16.40;74.40
32506;DHT22;18955;51.224;8.482;2022-08-03T05:55:11;16.40;74.50
32506;DHT22;18955;51.224;8.482;2022-08-03T05:57:37;16.40;74.40
32506;DHT22;18955;51.224;8.482;2022-08-03T06:00:06;16.40;74.30
32506;DHT22;18955;51.224;8.482;2022-08-03T06:02:37;16.40;74.60
32506;DHT22;18955;51.224;8.482;2022-08-03T06:05:04;16.40;75.10
32506;DHT22;18955;51.224;8.482;2022-08-03T06:07:31;16.40;75.10
32506;DHT22;18955;51.224;8.482;2022-08-03T06:09:57;16.40;74.90
32506;DHT22;18955;51.224;8.482;2022-08-03T06:12:23;16.40;74.80
32506;DHT22;18955;51.224;8.482;2022-08-03T06:14:49;16.40;75.00
32506;DHT22;18955;51.224;8.482;2022-08-03T06:17:15;16.40;74.40
32506;DHT22;18955;51.224;8.482;2022-08-03T06:19:42;16.50;75.30
32506;DHT22;18955;51.224;8.482;2022-08-03T06:22:08;16.50;74.80
32506;DHT22;18955;51.224;8.482;2022-08-03T06:24:34;16.60;74.40
32506;DHT22;18955;51.224;8.482;2022-08-03T06:27:00;16.60;74.20
32506;DHT22;18955;51.224;8.482;2022-08-03T06:29:26;16.70;73.70
32506;DHT22;18955;51.224;8.482;2022-08-03T06:31:53;16.80;73.50
32506;DHT22;18955;51.224;8.482;2022-08-03T06:34:19;16.90;73.30
32506;DHT22;18955;51.224;8.482;2022-08-03T06:36:45;17.00;73.00
32506;DHT22;18955;51.224;8.482;2022-08-03T06:39:13;17.00;72.80
32506;DHT22;18955;51.224;8.482;2022-08-03T06:41:39;17.10;72.80
32506;DHT22;18955;51.224;8.482;2022-08-03T06:44:08;17.10;72.30
32506;DHT22;18955;51.224;8.482;2022-08-03T06:46:34;17.20;72.30
32506;DHT22;18955;51.224;8.482;2022-08-03T06:49:00;17.30;72.20
32506;DHT22;18955;51.224;8.482;2022-08-03T06:51:26;17.30;72.10
32506;DHT22;18955;51.224;8.482;2022-08-03T06:53:52;17.30;71.70
32506;DHT22;18955;51.224;8.482;2022-08-03T06:56:19;17.40;72.50
32506;DHT22;18955;51.224;8.482;2022-08-03T06:58:45;17.40;71.80
32506;DHT22;18955;51.224;8.482;2022-08-03T07:01:12;17.50;71.70
32506;DHT22;18955;51.224;8.482;2022-08-03T07:03:38;17.50;71.70
32506;DHT22;18955;51.224;8.482;2022-08-03T07:06:05;17.50;71.40
32506;DHT22;18955;51.224;8.482;2022-08-03T07:08:32;17.60;71.40
32506;DHT22;18955;51.224;8.482;2022-08-03T07:10:58;17.60;71.40
32506;DHT22;18955;51.224;8.482;2022-08-03T07:13:24;17.70;71.40
32506;DHT22;18955;51.224;8.482;2022-08-03T07:15:51;17.70;71.30
32506;DHT22;18955;51.224;8.482;2022-08-03T07:18:17;17.80;71.20
32506;DHT22;18955;51.224;8.482;2022-08-03T07:20:43;17.80;71.00
32506;DHT22;18955;51.224;8.482;2022-08-03T07:23:09;17.80;71.00
32506;DHT22;18955;51.224;8.482;2022-08-03T07:25:36;17.90;71.00
32506;DHT22;18955;51.224;8.482;2022-08-03T07:28:02;17.90;71.10
32506;DHT22;18955;51.224;8.482;2022-08-03T07:30:28;17.90;70.90
32506;DHT22;18955;51.224;8.482;2022-08-03T07:32:55;18.00;70.90
32506;DHT22;18955;51.224;8.482;2022-08-03T07:35:21;18.10;70.90
32506;DHT22;18955;51.224;8.482;2022-08-03T07:37:47;18.10;71.30
32506;DHT22;18955;51.224;8.482;2022-08-03T07:40:14;18.10;71.40
32506;DHT22;18955;51.224;8.482;2022-08-03T07:42:40;18.20;71.50
32506;DHT22;18955;51.224;8.482;2022-08-03T07:45:07;18.20;71.60
32506;DHT22;18955;51.224;8.482;2022-08-03T07:47:33;18.20;71.50
32506;DHT22;18955;51.224;8.482;2022-08-03T07:50:00;18.30;71.60
32506;DHT22;18955;51.224;8.482;2022-08-03T07:52:26;18.30;71.60
32506;DHT22;18955;51.224;8.482;2022-08-03T07:55:10;18.30;71.40
32506;DHT22;18955;51.224;8.482;2022-08-03T07:57:37;18.40;72.00
32506;DHT22;18955;51.224;8.482;2022-08-03T08:00:11;18.50;71.30
32506;DHT22;18955;51.224;8.482;2022-08-03T08:02:39;18.50;71.30
32506;DHT22;18955;51.224;8.482;2022-08-03T08:05:06;18.50;71.40
32506;DHT22;18955;51.224;8.482;2022-08-03T08:07:32;18.60;71.20
32506;DHT22;18955;51.224;8.482;2022-08-03T08:09:58;18.70;71.20
32506;DHT22;18955;51.224;8.482;2022-08-03T08:12:25;18.70;71.30
32506;DHT22;18955;51.224;8.482;2022-08-03T08:14:51;18.70;71.40
32506;DHT22;18955;51.224;8.482;2022-08-03T08:17:17;18.70;71.30
32506;DHT22;18955;51.224;8.482;2022-08-03T08:19:44;18.80;71.20
32506;DHT22;18955;51.224;8.482;2022-08-03T08:22:11;18.80;71.20
32506;DHT22;18955;51.224;8.482;2022-08-03T08:24:37;18.90;71.30
32506;DHT22;18955;51.224;8.482;2022-08-03T08:27:03;18.90;71.20
32506;DHT22;18955;51.224;8.482;2022-08-03T08:29:30;18.90;71.10
32506;DHT22;18955;51.224;8.482;2022-08-03T08:31:56;18.90;71.20
32506;DHT22;18955;51.224;8.482;2022-08-03T08:34:22;19.00;71.80
32506;DHT22;18955;51.224;8.482;2022-08-03T08:36:48;19.00;71.20
32506;DHT22;18955;51.224;8.482;2022-08-03T08:39:14;19.10;71.30
32506;DHT22;18955;51.224;8.482;2022-08-03T08:41:41;19.10;71.70
32506;DHT22;18955;51.224;8.482;2022-08-03T08:44:07;19.10;71.50
32506;DHT22;18955;51.224;8.482;2022-08-03T08:46:35;19.10;71.60
32506;DHT22;18955;51.224;8.482;2022-08-03T08:49:04;19.20;71.70
32506;DHT22;18955;51.224;8.482;2022-08-03T08:51:33;19.20;71.60
32506;DHT22;18955;51.224;8.482;2022-08-03T08:54:06;19.20;71.40
32506;DHT22;18955;51.224;8.482;2022-08-03T08:56:32;19.20;71.80
32506;DHT22;18955;51.224;8.482;2022-08-03T08:59:00;19.30;71.90
32506;DHT22;18955;51.224;8.482;2022-08-03T09:01:27;19.30;71.90
32506;DHT22;18955;51.224;8.482;2022-08-03T09:03:54;19.30;72.10
32506;DHT22;18955;51.224;8.482;2022-08-03T09:06:21;19.40;72.50
32506;DHT22;18955;51.224;8.482;2022-08-03T09:08:48;19.40;71.90
32506;DHT22;18955;51.224;8.482;2022-08-03T09:11:14;19.50;71.80
32506;DHT22;18955;51.224;8.482;2022-08-03T09:13:40;19.50;71.80
32506;DHT22;18955;51.224;8.482;2022-08-03T09:18:39;19.60;72.40
32506;DHT22;18955;51.224;8.482;2022-08-03T09:21:23;19.60;72.20
32506;DHT22;18955;51.224;8.482;2022-08-03T09:23:52;19.60;72.30
32506;DHT22;18955;51.224;8.482;2022-08-03T09:26:26;19.70;72.00
32506;DHT22;18955;51.224;8.482;2022-08-03T09:29:05;19.70;71.90
32506;DHT22;18955;51.224;8.482;2022-08-03T09:34:07;19.80;72.40
32506;DHT22;18955;51.224;8.482;2022-08-03T09:36:44;19.80;72.60
32506;DHT22;18955;51.224;8.482;2022-08-03T09:41:44;19.90;72.10
32506;DHT22;18955;51.224;8.482;2022-08-03T09:44:11;19.90;72.00
32506;DHT22;18955;51.224;8.482;2022-08-03T09:47:04;19.90;71.90
32506;DHT22;18955;51.224;8.482;2022-08-03T09:49:33;20.00;71.80
32506;DHT22;18955;51.224;8.482;2022-08-03T09:52:20;20.00;71.80
32506;DHT22;18955;51.224;8.482;2022-08-03T09:54:51;20.00;72.00
32506;DHT22;18955;51.224;8.482;2022-08-03T09:57:25;20.10;71.90
32506;DHT22;18955;51.224;8.482;2022-08-03T09:59:52;20.10;71.90
32506;DHT22;18955;51.224;8.482;2022-08-03T10:02:25;20.10;71.80
32506;DHT22;18955;51.224;8.482;2022-08-03T10:04:52;20.20;71.80
32506;DHT22;18955;51.224;8.482;2022-08-03T10:07:23;20.20;72.00
32506;DHT22;18955;51.224;8.482;2022-08-03T10:10:00;20.20;72.00
32506;DHT22;18955;51.224;8.482;2022-08-03T10:12:28;20.30;72.00
32506;DHT22;18955;51.224;8.482;2022-08-03T10:14:54;20.30;72.00
32506;DHT22;18955;51.224;8.482;2022-08-03T10:17:21;20.30;72.00
32506;DHT22;18955;51.224;8.482;2022-08-03T10:19:48;20.30;72.30
32506;DHT22;18955;51.224;8.482;2022-08-03T10:22:31;20.30;72.10
32506;DHT22;18955;51.224;8.482;2022-08-03T10:25:13;20.40;72.20
32506;DHT22;18955;51.224;8.482;2022-08-03T10:27:41;20.40;72.20
32506;DHT22;18955;51.224;8.482;2022-08-03T10:30:11;20.40;72.20
32506;DHT22;18955;51.224;8.482;2022-08-03T10:35:18;20.40;72.30
32506;DHT22;18955;51.224;8.482;2022-08-03T10:40:19;20.50;72.20
32506;DHT22;18955;51.224;8.482;2022-08-03T10:42:49;20.50;72.20
32506;DHT22;18955;51.224;8.482;2022-08-03T10:45:22;20.50;72.20
32506;DHT22;18955;51.224;8.482;2022-08-03T10:47:51;20.50;72.20
32506;DHT22;18955;51.224;8.482;2022-08-03T10:50:18;20.50;72.30
32506;DHT22;18955;51.224;8.482;2022-08-03T10:53:01;20.50;72.30
32506;DHT22;18955;51.224;8.482;2022-08-03T11:01:12;20.60;72.30
32506;DHT22;18955;51.224;8.482;2022-08-03T11:06:20;20.60;72.50
32506;DHT22;18955;51.224;8.482;2022-08-03T11:08:48;20.70;72.50
32506;DHT22;18955;51.224;8.482;2022-08-03T11:14:03;20.70;72.50
32506;DHT22;18955;51.224;8.482;2022-08-03T11:16:33;20.70;72.50
32506;DHT22;18955;51.224;8.482;2022-08-03T11:19:06;20.70;72.50
32506;DHT22;18955;51.224;8.482;2022-08-03T11:29:55;20.80;72.40
32506;DHT22;18955;51.224;8.482;2022-08-03T11:35:31;20.80;72.40
32506;DHT22;18955;51.224;8.482;2022-08-03T11:38:02;20.90;72.50
32506;DHT22;18955;51.224;8.482;2022-08-03T11:40:42;20.90;72.50
32506;DHT22;18955;51.224;8.482;2022-08-03T11:46:06;20.90;72.50
32506;DHT22;18955;51.224;8.482;2022-08-03T11:48:41;20.90;72.50
32506;DHT22;18955;51.224;8.482;2022-08-03T11:51:23;21.00;72.60
32506;DHT22;18955;51.224;8.482;2022-08-03T11:56:18;21.00;72.60
32506;DHT22;18955;51.224;8.482;2022-08-03T11:58:46;21.00;72.30
32506;DHT22;18955;51.224;8.482;2022-08-03T12:01:18;21.00;72.50
32506;DHT22;18955;51.224;8.482;2022-08-03T12:03:45;21.00;72.50
32506;DHT22;18955;51.224;8.482;2022-08-03T12:06:12;21.10;72.50
32506;DHT22;18955;51.224;8.482;2022-08-03T12:08:39;21.10;72.50
32506;DHT22;18955;51.224;8.482;2022-08-03T12:11:08;21.10;72.50
32506;DHT22;18955;51.224;8.482;2022-08-03T12:13:43;21.10;72.50
32506;DHT22;18955;51.224;8.482;2022-08-03T12:16:19;21.10;72.50
32506;DHT22;18955;51.224;8.482;2022-08-03T12:19:00;21.20;72.50
32506;DHT22;18955;51.224;8.482;2022-08-03T12:21:27;21.20;72.50
32506;DHT22;18955;51.224;8.482;2022-08-03T12:24:00;21.20;72.40
32506;DHT22;18955;51.224;8.482;2022-08-03T12:26:27;21.20;72.40
32506;DHT22;18955;51.224;8.482;2022-08-03T12:28:54;21.20;72.50
32506;DHT22;18955;51.224;8.482;2022-08-03T12:31:20;21.20;72.40
32506;DHT22;18955;51.224;8.482;2022-08-03T12:34:03;21.20;72.40
32506;DHT22;18955;51.224;8.482;2022-08-03T12:36:33;21.30;72.50
32506;DHT22;18955;51.224;8.482;2022-08-03T12:39:02;21.30;72.40
32506;DHT22;18955;51.224;8.482;2022-08-03T12:41:37;21.30;72.50
32506;DHT22;18955;51.224;8.482;2022-08-03T12:44:05;21.30;72.50
32506;DHT22;18955;51.224;8.482;2022-08-03T12:46:36;21.40;72.50
32506;DHT22;18955;51.224;8.482;2022-08-03T12:49:13;21.40;72.50
32506;DHT22;18955;51.224;8.482;2022-08-03T12:54:16;21.40;72.40
32506;DHT22;18955;51.224;8.482;2022-08-03T12:57:18;21.40;72.40
32506;DHT22;18955;51.224;8.482;2022-08-03T12:59:45;21.40;72.40
32506;DHT22;18955;51.224;8.482;2022-08-03T13:02:18;21.50;72.40
32506;DHT22;18955;51.224;8.482;2022-08-03T13:04:46;21.50;72.50
32506;DHT22;18955;51.224;8.482;2022-08-03T13:07:14;21.50;72.40
32506;DHT22;18955;51.224;8.482;2022-08-03T13:09:47;21.50;72.50
32506;DHT22;18955;51.224;8.482;2022-08-03T13:12:18;21.50;72.50
32506;DHT22;18955;51.224;8.482;2022-08-03T13:14:48;21.60;72.60
32506;DHT22;18955;51.224;8.482;2022-08-03T13:17:14;21.60;72.50
32506;DHT22;18955;51.224;8.482;2022-08-03T13:19:44;21.60;72.50
32506;DHT22;18955;51.224;8.482;2022-08-03T13:22:24;21.60;72.50
32506;DHT22;18955;51.224;8.482;2022-08-03T13:24:52;21.60;72.50
32506;DHT22;18955;51.224;8.482;2022-08-03T13:27:20;21.70;72.60
32506;DHT22;18955;51.224;8.482;2022-08-03T13:29:47;21.70;72.60
32506;DHT22;18955;51.224;8.482;2022-08-03T13:32:13;21.70;72.60
32506;DHT22;18955;51.224;8.482;2022-08-03T13:34:39;21.80;72.70
32506;DHT22;18955;51.224;8.482;2022-08-03T13:37:05;21.80;72.60
32506;DHT22;18955;51.224;8.482;2022-08-03T13:39:32;21.80;72.60
32506;DHT22;18955;51.224;8.482;2022-08-03T13:41:58;21.80;72.70
32506;DHT22;18955;51.224;8.482;2022-08-03T13:44:24;21.80;72.60
32506;DHT22;18955;51.224;8.482;2022-08-03T13:46:51;21.90;72.70
32506;DHT22;18955;51.224;8.482;2022-08-03T13:49:17;21.90;72.70
32506;DHT22;18955;51.224;8.482;2022-08-03T13:51:44;21.90;72.70
32506;DHT22;18955;51.224;8.482;2022-08-03T13:54:10;21.90;72.80
32506;DHT22;18955;51.224;8.482;2022-08-03T13:56:36;21.90;72.70
32506;DHT22;18955;51.224;8.482;2022-08-03T13:59:03;22.00;72.80
32506;DHT22;18955;51.224;8.482;2022-08-03T14:01:29;22.00;72.70
32506;DHT22;18955;51.224;8.482;2022-08-03T14:03:55;22.00;72.70
32506;DHT22;18955;51.224;8.482;2022-08-03T14:06:23;22.10;72.70
32506;DHT22;18955;51.224;8.482;2022-08-03T14:08:51;22.10;73.10
32506;DHT22;18955;51.224;8.482;2022-08-03T14:11:17;22.10;73.30
32506;DHT22;18955;51.224;8.482;2022-08-03T14:13:44;22.20;72.70
32506;DHT22;18955;51.224;8.482;2022-08-03T14:16:10;22.20;73.20
32506;DHT22;18955;51.224;8.482;2022-08-03T14:18:36;22.30;72.70
32506;DHT22;18955;51.224;8.482;2022-08-03T14:21:04;22.30;72.70
32506;DHT22;18955;51.224;8.482;2022-08-03T14:23:30;22.30;72.70
32506;DHT22;18955;51.224;8.482;2022-08-03T14:25:57;22.40;72.70
32506;DHT22;18955;51.224;8.482;2022-08-03T14:28:24;22.40;72.50
32506;DHT22;18955;51.224;8.482;2022-08-03T14:30:51;22.50;72.40
32506;DHT22;18955;51.224;8.482;2022-08-03T14:33:18;22.60;72.40
32506;DHT22;18955;51.224;8.482;2022-08-03T14:35:44;22.60;72.40
32506;DHT22;18955;51.224;8.482;2022-08-03T14:38:10;22.70;72.40
32506;DHT22;18955;51.224;8.482;2022-08-03T14:40:36;22.70;72.30
32506;DHT22;18955;51.224;8.482;2022-08-03T14:43:03;22.70;72.20
32506;DHT22;18955;51.224;8.482;2022-08-03T14:45:29;22.80;72.00
32506;DHT22;18955;51.224;8.482;2022-08-03T14:47:55;22.80;72.10
32506;DHT22;18955;51.224;8.482;2022-08-03T14:50:21;22.90;71.90
32506;DHT22;18955;51.224;8.482;2022-08-03T14:52:48;22.90;71.70
32506;DHT22;18955;51.224;8.482;2022-08-03T14:55:14;22.90;71.80
32506;DHT22;18955;51.224;8.482;2022-08-03T14:57:40;23.00;71.90
32506;DHT22;18955;51.224;8.482;2022-08-03T15:00:07;23.10;72.40
32506;DHT22;18955;51.224;8.482;2022-08-03T15:02:33;23.10;71.70
32506;DHT22;18955;51.224;8.482;2022-08-03T15:04:59;23.20;71.70
32506;DHT22;18955;51.224;8.482;2022-08-03T15:07:25;23.20;71.70
32506;DHT22;18955;51.224;8.482;2022-08-03T15:09:52;23.30;71.60
32506;DHT22;18955;51.224;8.482;2022-08-03T15:12:18;23.30;71.50
32506;DHT22;18955;51.224;8.482;2022-08-03T15:14:44;23.30;71.50
32506;DHT22;18955;51.224;8.482;2022-08-03T15:17:10;23.40;71.70
32506;DHT22;18955;51.224;8.482;2022-08-03T15:19:37;23.50;71.60
32506;DHT22;18955;51.224;8.482;2022-08-03T15:22:04;23.50;71.40
32506;DHT22;18955;51.224;8.482;2022-08-03T15:24:30;23.60;71.30
32506;DHT22;18955;51.224;8.482;2022-08-03T15:26:57;23.70;71.30
32506;DHT22;18955;51.224;8.482;2022-08-03T15:29:24;23.80;71.40
32506;DHT22;18955;51.224;8.482;2022-08-03T15:31:51;23.90;71.30
32506;DHT22;18955;51.224;8.482;2022-08-03T15:34:17;23.90;71.10
32506;DHT22;18955;51.224;8.482;2022-08-03T15:36:43;24.00;71.10
32506;DHT22;18955;51.224;8.482;2022-08-03T15:39:09;24.10;70.90
32506;DHT22;18955;51.224;8.482;2022-08-03T15:41:35;24.20;70.90
32506;DHT22;18955;51.224;8.482;2022-08-03T15:44:02;24.20;71.40
32506;DHT22;18955;51.224;8.482;2022-08-03T15:46:28;24.20;70.80
32506;DHT22;18955;51.224;8.482;2022-08-03T15:48:54;24.30;70.80
32506;DHT22;18955;51.224;8.482;2022-08-03T15:51:20;24.40;70.80
32506;DHT22;18955;51.224;8.482;2022-08-03T15:53:47;24.50;70.70
32506;DHT22;18955;51.224;8.482;2022-08-03T15:56:13;24.50;70.70
32506;DHT22;18955;51.224;8.482;2022-08-03T15:58:39;24.50;70.70
32506;DHT22;18955;51.224;8.482;2022-08-03T16:01:06;24.60;70.90
32506;DHT22;18955;51.224;8.482;2022-08-03T16:03:32;24.70;70.90
32506;DHT22;18955;51.224;8.482;2022-08-03T16:06:05;24.70;70.80
32506;DHT22;18955;51.224;8.482;2022-08-03T16:08:32;24.80;70.60
32506;DHT22;18955;51.224;8.482;2022-08-03T16:10:59;24.80;70.90
32506;DHT22;18955;51.224;8.482;2022-08-03T16:13:26;24.70;71.00
32506;DHT22;18955;51.224;8.482;2022-08-03T16:15:52;24.70;71.20
32506;DHT22;18955;51.224;8.482;2022-08-03T16:18:19;24.70;71.20
32506;DHT22;18955;51.224;8.482;2022-08-03T16:20:46;24.80;71.50
32506;DHT22;18955;51.224;8.482;2022-08-03T16:23:15;24.90;71.50
32506;DHT22;18955;51.224;8.482;2022-08-03T16:25:43;24.90;71.70
32506;DHT22;18955;51.224;8.482;2022-08-03T16:28:11;25.00;71.40
32506;DHT22;18955;51.224;8.482;2022-08-03T16:30:38;25.10;71.40
32506;DHT22;18955;51.224;8.482;2022-08-03T16:33:04;25.10;72.00
32506;DHT22;18955;51.224;8.482;2022-08-03T16:35:30;25.20;71.40
32506;DHT22;18955;51.224;8.482;2022-08-03T16:37:57;25.20;71.50
32506;DHT22;18955;51.224;8.482;2022-08-03T16:40:23;25.30;71.40
32506;DHT22;18955;51.224;8.482;2022-08-03T16:42:50;25.30;71.70